createdAt,value
2022-08-14T00:01:54.970Z,11.80
2022-08-14T00:04:34.410Z,12.70
2022-08-14T00:07:08.694Z,12.90
2022-08-14T00:09:55.356Z,12.00
2022-08-14T00:12:24.743Z,12.00
2022-08-14T00:15:00.399Z,12.20
2022-08-14T00:17:29.681Z,11.30
2022-08-14T00:19:58.461Z,13.20
2022-08-14T00:22:56.129Z,12.10
2022-08-14T00:25:13.765Z,11.70
2022-08-14T00:27:42.486Z,12.20
2022-08-14T00:30:11.090Z,11.70
2022-08-14T00:32:53.229Z,11.40
2022-08-14T00:35:43.039Z,11.60
2022-08-14T00:38:10.800Z,12.00
2022-08-14T00:40:38.060Z,12.00
2022-08-14T00:43:06.437Z,11.50
2022-08-14T00:45:34.107Z,12.20
2022-08-14T00:48:01.075Z,12.10
2022-08-14T00:50:30.676Z,13.50
2022-08-14T00:53:00.350Z,13.10
2022-08-14T00:55:31.014Z,12.50
2022-08-14T00:58:18.145Z,12.40
2022-08-14T01:00:51.249Z,11.50
2022-08-14T01:03:20.118Z,11.60
2022-08-14T01:05:52.085Z,12.30
2022-08-14T01:08:51.792Z,11.70
2022-08-14T01:11:08.217Z,11.20
2022-08-14T01:13:42.505Z,11.70
2022-08-14T01:16:15.114Z,11.10
2022-08-14T01:19:02.137Z,10.40
2022-08-14T01:21:38.878Z,11.20
2022-08-14T01:24:24.871Z,11.70
2022-08-14T01:27:00.479Z,11.70
2022-08-14T01:29:52.012Z,12.10
2022-08-14T01:32:22.877Z,12.40
2022-08-14T01:35:18.976Z,11.10
2022-08-14T01:37:44.122Z,12.30
2022-08-14T01:40:11.930Z,12.70
2022-08-14T01:42:44.398Z,12.10
2022-08-14T01:45:17.947Z,12.10
2022-08-14T01:48:03.614Z,11.60
2022-08-14T01:50:33.764Z,11.90
2022-08-14T01:53:01.716Z,12.20
2022-08-14T01:55:32.348Z,11.80
2022-08-14T01:58:18.458Z,12.20
2022-08-14T02:00:48.247Z,12.40
2022-08-14T02:03:16.595Z,11.90
2022-08-14T02:05:43.678Z,11.90
2022-08-14T02:08:10.842Z,12.10
2022-08-14T02:10:46.371Z,12.20
2022-08-14T02:13:16.447Z,12.40
2022-08-14T02:15:44.283Z,12.70
2022-08-14T02:18:11.864Z,12.60
2022-08-14T02:20:42.266Z,13.30
2022-08-14T02:23:09.521Z,12.10
2022-08-14T02:25:39.518Z,13.10
2022-08-14T02:28:24.609Z,13.60
2022-08-14T02:30:53.623Z,12.80
2022-08-14T02:33:22.644Z,13.70
2022-08-14T02:35:53.404Z,13.70
2022-08-14T02:38:29.920Z,12.90
2022-08-14T02:41:01.182Z,13.50
2022-08-14T02:43:36.541Z,13.40
2022-08-14T02:46:09.109Z,13.70
2022-08-14T02:49:04.605Z,13.30
2022-08-14T02:51:30.680Z,13.60
2022-08-14T02:53:58.737Z,13.50
2022-08-14T02:56:30.711Z,14.30
2022-08-14T02:59:16.184Z,12.50
2022-08-14T03:01:50.790Z,13.20
2022-08-14T03:04:21.755Z,13.90
2022-08-14T03:06:57.357Z,13.20
2022-08-14T03:09:41.713Z,13.60
2022-08-14T03:12:30.926Z,13.20
2022-08-14T03:14:59.731Z,13.90
2022-08-14T03:17:32.031Z,14.90
2022-08-14T03:20:11.259Z,13.30
2022-08-14T03:22:41.888Z,14.10
2022-08-14T03:25:10.979Z,13.80
2022-08-14T03:27:48.228Z,13.10
2022-08-14T03:30:39.657Z,13.00
2022-08-14T03:33:11.910Z,13.60
2022-08-14T03:35:59.794Z,14.30
2022-08-14T03:39:12.463Z,13.30
2022-08-14T03:41:16.815Z,13.40
2022-08-14T03:43:57.160Z,14.30
2022-08-14T03:46:52.124Z,14.60
2022-08-14T03:49:28.853Z,14.20
2022-08-14T03:51:58.359Z,14.60
2022-08-14T03:54:28.531Z,14.40
2022-08-14T03:57:02.542Z,15.30
2022-08-14T03:59:31.269Z,15.20
2022-08-14T04:02:02.283Z,15.00
2022-08-14T04:04:31.887Z,15.40
2022-08-14T04:07:01.011Z,16.30
2022-08-14T04:09:28.043Z,15.70
2022-08-14T04:11:55.954Z,16.40
2022-08-14T04:14:23.738Z,16.00
2022-08-14T04:16:50.845Z,16.40
2022-08-14T04:19:20.756Z,17.60
2022-08-14T04:22:02.925Z,16.50
2022-08-14T04:24:37.943Z,17.10
2022-08-14T04:27:13.032Z,16.70
2022-08-14T04:29:45.116Z,16.10
2022-08-14T04:32:59.323Z,16.20
2022-08-14T04:35:07.205Z,14.80
2022-08-14T04:37:54.022Z,14.10
2022-08-14T04:40:40.592Z,14.00
2022-08-14T04:43:38.351Z,14.50
2022-08-14T04:46:56.351Z,14.80
2022-08-14T04:49:04.541Z,15.40
2022-08-14T04:51:46.334Z,15.80
2022-08-14T04:54:22.940Z,15.30
2022-08-14T04:56:52.014Z,16.30
2022-08-14T04:59:21.475Z,15.60
2022-08-14T05:01:53.915Z,15.80
2022-08-14T05:04:25.237Z,16.60
2022-08-14T05:06:54.260Z,16.00
2022-08-14T05:09:29.177Z,16.10
2022-08-14T05:12:00.659Z,16.50
2022-08-14T05:14:55.197Z,15.40
2022-08-14T05:17:32.141Z,19.10
2022-08-14T05:21:04.753Z,16.70
2022-08-14T05:22:59.977Z,16.60
2022-08-14T05:25:30.997Z,17.20
2022-08-14T05:28:24.387Z,19.40
2022-08-14T05:30:57.995Z,16.00
2022-08-14T05:33:26.428Z,19.70
2022-08-14T05:36:01.255Z,17.60
2022-08-14T05:38:31.354Z,14.00
2022-08-14T05:40:59.919Z,14.00
2022-08-14T05:43:40.754Z,14.00
2022-08-14T05:46:15.228Z,13.90
2022-08-14T05:48:42.964Z,12.80
2022-08-14T05:51:10.595Z,13.90
2022-08-14T05:53:37.504Z,13.50
2022-08-14T05:56:09.572Z,14.80
2022-08-14T05:58:41.082Z,13.40
2022-08-14T06:01:09.854Z,14.40
2022-08-14T06:03:37.281Z,14.30
2022-08-14T06:06:08.049Z,13.80
2022-08-14T06:08:40.910Z,13.40
2022-08-14T06:11:08.778Z,12.20
2022-08-14T06:13:45.457Z,12.20
2022-08-14T06:16:17.486Z,12.30
2022-08-14T06:18:47.536Z,12.50
2022-08-14T06:23:44.714Z,11.70
2022-08-14T06:26:16.358Z,12.20
2022-08-14T06:28:47.924Z,11.30
2022-08-14T06:31:20.949Z,11.00
2022-08-14T06:35:11.124Z,12.30
2022-08-14T06:36:36.929Z,13.10
2022-08-14T06:39:04.418Z,11.20
2022-08-14T06:41:58.708Z,12.50
2022-08-14T06:44:32.638Z,10.70
2022-08-14T06:47:02.107Z,10.80
2022-08-14T06:49:30.197Z,12.40
2022-08-14T06:51:57.615Z,11.00
2022-08-14T06:54:31.064Z,11.10
2022-08-14T06:56:58.764Z,11.50
2022-08-14T06:59:25.596Z,11.30
2022-08-14T07:02:13.235Z,12.10
2022-08-14T07:04:59.107Z,12.30
2022-08-14T07:07:28.721Z,12.10
2022-08-14T07:09:56.656Z,12.20
2022-08-14T07:12:54.976Z,13.30
2022-08-14T07:15:11.239Z,11.80
2022-08-14T07:17:46.542Z,12.90
2022-08-14T07:20:31.007Z,12.00
2022-08-14T07:23:07.646Z,11.80
2022-08-14T07:25:37.492Z,10.30
2022-08-14T07:28:20.686Z,10.20
2022-08-14T07:30:50.915Z,10.20
2022-08-14T07:33:20.757Z,9.20
2022-08-14T07:35:58.483Z,9.30
2022-08-14T07:38:36.204Z,8.90
2022-08-14T07:41:11.738Z,9.00
2022-08-14T07:43:42.693Z,9.40
2022-08-14T07:46:11.083Z,9.40
2022-08-14T07:48:41.397Z,9.90
2022-08-14T07:51:11.213Z,9.00
2022-08-14T07:56:36.789Z,10.30
2022-08-14T07:58:58.777Z,9.80
2022-08-14T08:01:26.554Z,10.00
2022-08-14T08:03:57.307Z,12.20
2022-08-14T08:06:27.558Z,13.10
2022-08-14T08:09:01.143Z,10.80
2022-08-14T08:11:34.832Z,11.10
2022-08-14T08:14:16.530Z,9.70
2022-08-14T08:16:45.934Z,9.90
2022-08-14T08:19:14.101Z,10.10
2022-08-14T08:21:43.846Z,10.40
2022-08-14T08:24:12.565Z,10.30
2022-08-14T08:26:47.447Z,9.90
2022-08-14T08:29:22.528Z,10.30
2022-08-14T08:31:55.399Z,10.30
2022-08-14T08:34:23.483Z,10.00
2022-08-14T08:36:51.040Z,9.90
2022-08-14T08:39:22.388Z,9.80
2022-08-14T08:41:50.653Z,9.70
2022-08-14T08:47:06.519Z,9.60
2022-08-14T08:49:48.839Z,9.50
2022-08-14T08:52:31.281Z,9.50
2022-08-14T08:55:01.122Z,8.40
2022-08-14T08:57:36.063Z,9.20
2022-08-14T09:00:24.157Z,9.80
2022-08-14T09:02:54.835Z,9.80
2022-08-14T09:05:23.569Z,8.80
2022-08-14T09:07:50.770Z,8.30
2022-08-14T09:10:23.735Z,8.00
2022-08-14T09:12:56.361Z,8.70
2022-08-14T09:15:24.041Z,9.70
2022-08-14T09:17:51.291Z,8.30
2022-08-14T09:20:26.258Z,8.20
2022-08-14T09:22:59.206Z,8.40
2022-08-14T09:26:00.261Z,8.70
2022-08-14T09:28:13.280Z,8.10
2022-08-14T09:30:54.547Z,8.40
2022-08-14T09:33:55.969Z,7.90
2022-08-14T09:36:30.473Z,7.20
2022-08-14T09:39:11.788Z,7.80
2022-08-14T09:42:21.827Z,8.00
2022-08-14T09:45:30.370Z,8.00
2022-08-14T09:48:14.948Z,7.90
2022-08-14T09:54:19.269Z,7.50
2022-08-14T09:56:30.426Z,7.40
2022-08-14T09:59:01.141Z,7.60
2022-08-14T10:01:36.331Z,7.30
2022-08-14T10:04:35.054Z,7.20
2022-08-14T10:09:21.240Z,7.40
2022-08-14T10:11:58.878Z,6.90
2022-08-14T10:14:35.209Z,6.90
2022-08-14T10:17:06.324Z,7.20
2022-08-14T10:19:35.536Z,7.30
2022-08-14T10:23:11.746Z,7.10
2022-08-14T10:24:59.852Z,6.20
2022-08-14T10:27:28.730Z,6.20
2022-08-14T10:30:04.698Z,6.20
2022-08-14T10:32:51.674Z,5.40
2022-08-14T10:35:22.345Z,5.40
2022-08-14T10:37:53.529Z,5.10
2022-08-14T10:40:38.329Z,5.30
2022-08-14T10:43:31.941Z,4.70
2022-08-14T10:46:21.591Z,5.30
2022-08-14T10:48:58.030Z,5.70
2022-08-14T10:51:26.705Z,5.50
2022-08-14T10:53:58.875Z,5.40
2022-08-14T10:56:35.858Z,5.00
2022-08-14T10:59:08.308Z,6.00
2022-08-14T11:01:41.216Z,4.80
2022-08-14T11:04:30.332Z,5.50
2022-08-14T11:06:57.848Z,5.30
2022-08-14T11:09:26.446Z,5.30
2022-08-14T11:12:34.392Z,6.30
2022-08-14T11:15:01.830Z,5.10
2022-08-14T11:17:31.786Z,5.50
2022-08-14T11:20:01.127Z,5.70
2022-08-14T11:22:55.590Z,5.90
2022-08-14T11:25:16.732Z,4.80
2022-08-14T11:27:45.214Z,5.80
2022-08-14T11:30:50.343Z,5.60
2022-08-14T11:33:05.367Z,5.10
2022-08-14T11:35:43.884Z,4.90
2022-08-14T11:38:14.069Z,5.00
2022-08-14T11:40:46.656Z,5.40
2022-08-14T11:43:14.907Z,5.50
2022-08-14T11:45:45.773Z,4.60
2022-08-14T11:49:01.876Z,4.90
2022-08-14T11:51:04.959Z,5.00
2022-08-14T11:53:35.595Z,5.20
2022-08-14T11:56:10.957Z,5.60
2022-08-14T11:58:38.706Z,5.40
2022-08-14T12:01:09.715Z,4.40
2022-08-14T12:03:46.831Z,5.10
2022-08-14T12:06:29.827Z,4.90
2022-08-14T12:09:08.748Z,4.80
2022-08-14T12:11:46.949Z,5.00
2022-08-14T12:14:30.625Z,4.90
2022-08-14T12:17:12.128Z,5.00
2022-08-14T12:19:51.502Z,4.10
2022-08-14T12:22:40.059Z,4.40
2022-08-14T12:25:15.514Z,4.60
2022-08-14T12:27:51.815Z,4.60
2022-08-14T12:30:43.396Z,4.50
2022-08-14T12:33:26.886Z,4.50
2022-08-14T12:36:04.791Z,4.60
2022-08-14T12:38:44.347Z,4.20
2022-08-14T12:41:21.191Z,4.20
2022-08-14T12:44:00.194Z,4.50
2022-08-14T12:46:35.035Z,4.60
2022-08-14T12:49:34.851Z,4.50
2022-08-14T12:52:02.968Z,4.60
2022-08-14T12:54:32.300Z,4.40
2022-08-14T12:57:20.593Z,4.40
2022-08-14T12:59:50.522Z,4.50
2022-08-14T13:02:26.598Z,4.90
2022-08-14T13:04:58.241Z,4.10
2022-08-14T13:07:32.547Z,4.40
2022-08-14T13:10:00.382Z,4.20
2022-08-14T13:12:56.789Z,4.40
2022-08-14T13:15:27.531Z,4.80
2022-08-14T13:17:56.933Z,4.90
2022-08-14T13:20:29.842Z,4.30
2022-08-14T13:23:03.005Z,5.20
2022-08-14T13:25:30.090Z,5.00
2022-08-14T13:28:01.815Z,4.80
2022-08-14T13:30:30.335Z,4.80
2022-08-14T13:33:06.822Z,4.80
2022-08-14T13:35:46.315Z,5.10
2022-08-14T13:38:13.673Z,5.80
2022-08-14T13:40:41.062Z,5.30
2022-08-14T13:43:09.719Z,4.80
2022-08-14T13:46:00.984Z,5.80
2022-08-14T13:48:32.692Z,5.40
2022-08-14T13:51:04.875Z,5.70
2022-08-14T13:53:37.798Z,5.80
2022-08-14T13:56:05.316Z,6.80
2022-08-14T13:58:35.589Z,5.80
2022-08-14T14:01:04.997Z,6.70
2022-08-14T14:03:35.205Z,6.30
2022-08-14T14:06:02.715Z,7.20
2022-08-14T14:08:45.619Z,7.80
2022-08-14T14:11:16.571Z,6.60
2022-08-14T14:13:46.457Z,7.10
2022-08-14T14:16:21.998Z,7.60
2022-08-14T14:19:09.489Z,7.90
2022-08-14T14:21:40.563Z,7.30
2022-08-14T14:24:14.663Z,7.10
2022-08-14T14:26:49.939Z,6.90
2022-08-14T14:29:19.303Z,7.10
2022-08-14T14:31:53.691Z,7.00
2022-08-14T14:34:29.301Z,6.30
2022-08-14T14:37:03.123Z,6.60
2022-08-14T14:39:35.196Z,6.50
2022-08-14T14:42:06.520Z,5.90
2022-08-14T14:44:36.123Z,6.40
2022-08-14T14:47:03.347Z,6.10
2022-08-14T14:49:51.329Z,6.50
2022-08-14T14:52:27.589Z,6.90
2022-08-14T14:54:56.820Z,6.10
2022-08-14T14:57:30.331Z,6.30
2022-08-14T15:00:05.996Z,6.60
2022-08-14T15:02:36.625Z,5.70
2022-08-14T15:05:09.180Z,6.00
2022-08-14T15:07:37.693Z,6.80
2022-08-14T15:10:27.613Z,5.80
2022-08-14T15:15:28.509Z,5.70
2022-08-14T15:18:01.062Z,6.90
2022-08-14T15:20:31.452Z,6.30
2022-08-14T15:23:12.280Z,7.00
2022-08-14T15:25:41.517Z,6.00
2022-08-14T15:28:12.973Z,6.20
2022-08-14T15:30:41.114Z,6.40
2022-08-14T15:33:10.477Z,6.30
2022-08-14T15:35:45.002Z,7.10
2022-08-14T15:38:17.793Z,6.50
2022-08-14T15:40:51.524Z,6.20
2022-08-14T15:43:27.189Z,7.80
2022-08-14T15:45:56.533Z,5.90
2022-08-14T15:48:24.138Z,6.90
2022-08-14T15:50:51.925Z,6.80
2022-08-14T15:53:22.467Z,7.30
2022-08-14T15:55:50.869Z,6.60
2022-08-14T15:58:20.835Z,6.50
2022-08-14T16:01:07.237Z,7.20
2022-08-14T16:03:36.495Z,7.20
2022-08-14T16:06:15.662Z,6.90
2022-08-14T16:08:58.511Z,6.60
2022-08-14T16:11:26.155Z,6.10
2022-08-14T16:13:57.516Z,6.80
2022-08-14T16:16:34.571Z,7.10
2022-08-14T16:19:18.525Z,6.20
2022-08-14T16:22:02.030Z,6.30
2022-08-14T16:24:36.113Z,6.20
2022-08-14T16:27:38.778Z,5.80
2022-08-14T16:30:20.691Z,5.30
2022-08-14T16:32:55.320Z,6.10
2022-08-14T16:35:42.291Z,5.80
2022-08-14T16:38:44.918Z,6.60
2022-08-14T16:41:22.828Z,6.70
2022-08-14T16:43:52.387Z,7.10
2022-08-14T16:46:20.653Z,6.00
2022-08-14T16:48:55.480Z,6.80
2022-08-14T16:51:27.997Z,7.00
2022-08-14T16:53:58.174Z,6.90
2022-08-14T16:56:28.165Z,7.60
2022-08-14T16:59:09.544Z,6.80
2022-08-14T17:01:41.849Z,7.10
2022-08-14T17:04:25.273Z,7.50
2022-08-14T17:06:57.042Z,6.90
2022-08-14T17:09:31.490Z,6.20
2022-08-14T17:12:07.172Z,5.70
2022-08-14T17:14:58.103Z,5.10
2022-08-14T17:20:34.736Z,5.20
2022-08-14T17:23:11.117Z,4.80
2022-08-14T17:25:38.417Z,4.90
2022-08-14T17:28:51.280Z,4.90
2022-08-14T17:31:02.496Z,5.40
2022-08-14T17:33:40.500Z,4.70
2022-08-14T17:36:20.224Z,4.70
2022-08-14T17:39:11.954Z,4.70
2022-08-14T17:42:02.025Z,4.70
2022-08-14T17:44:44.864Z,4.70
2022-08-14T17:47:14.703Z,5.10
2022-08-14T17:49:52.693Z,5.50
2022-08-14T17:52:34.458Z,5.00
2022-08-14T17:55:06.845Z,4.60
2022-08-14T17:57:35.217Z,5.20
2022-08-14T18:00:16.407Z,5.40
2022-08-14T18:02:51.000Z,5.30
2022-08-14T18:05:23.764Z,4.60
2022-08-14T18:08:33.572Z,5.50
2022-08-14T18:10:58.791Z,5.20
2022-08-14T18:13:50.745Z,5.50
2022-08-14T18:16:20.283Z,5.20
2022-08-14T18:18:50.355Z,4.90
2022-08-14T18:21:42.677Z,5.90
2022-08-14T18:24:28.300Z,6.30
2022-08-14T18:27:01.738Z,5.50
2022-08-14T18:29:31.591Z,5.30
2022-08-14T18:31:59.965Z,5.10
2022-08-14T18:34:37.600Z,5.50
2022-08-14T18:37:17.276Z,5.90
2022-08-14T18:42:32.560Z,5.60
2022-08-14T18:45:01.378Z,6.50
2022-08-14T18:47:32.622Z,6.10
2022-08-14T18:50:27.103Z,6.00
2022-08-14T18:53:06.942Z,5.40
2022-08-14T18:55:47.478Z,6.30
2022-08-14T18:58:30.465Z,6.40
2022-08-14T19:01:01.670Z,6.70
2022-08-14T19:03:36.858Z,7.40
2022-08-14T19:06:08.790Z,6.20
2022-08-14T19:08:47.142Z,5.50
2022-08-14T19:11:32.793Z,4.60
2022-08-14T19:14:05.011Z,5.00
2022-08-14T19:16:36.295Z,4.20
2022-08-14T19:19:08.760Z,4.90
2022-08-14T19:21:40.877Z,4.40
2022-08-14T19:24:27.585Z,5.60
2022-08-14T19:27:16.383Z,5.30
2022-08-14T19:29:47.828Z,5.20
2022-08-14T19:32:36.624Z,5.60
2022-08-14T19:35:16.534Z,5.60
2022-08-14T19:37:54.951Z,6.10
2022-08-14T19:40:42.792Z,6.90
2022-08-14T19:43:10.237Z,7.50
2022-08-14T19:45:38.379Z,7.10
2022-08-14T19:48:13.408Z,7.10
2022-08-14T19:50:44.349Z,6.60
2022-08-14T19:53:17.588Z,6.70
2022-08-14T19:55:57.127Z,7.00
2022-08-14T19:58:54.002Z,6.40
2022-08-14T20:01:26.282Z,6.50
2022-08-14T20:04:45.159Z,7.30
2022-08-14T20:06:55.883Z,6.70
2022-08-14T20:11:08.125Z,6.40
2022-08-14T20:12:35.334Z,6.60
2022-08-14T20:15:08.830Z,7.20
2022-08-14T20:17:40.444Z,6.70
2022-08-14T20:20:32.043Z,6.80
2022-08-14T20:23:11.349Z,5.90
2022-08-14T20:25:45.438Z,7.00
2022-08-14T20:28:30.664Z,6.80
2022-08-14T20:31:18.121Z,5.80
2022-08-14T20:34:24.675Z,6.70
2022-08-14T20:37:04.436Z,6.00
2022-08-14T20:39:34.434Z,6.50
2022-08-14T20:42:34.957Z,6.50
2022-08-14T20:45:24.641Z,6.20
2022-08-14T20:48:01.499Z,5.80
2022-08-14T20:50:29.831Z,6.70
2022-08-14T20:53:05.844Z,6.00
2022-08-14T20:55:41.682Z,6.30
2022-08-14T20:58:41.965Z,6.00
2022-08-14T21:01:11.391Z,6.20
2022-08-14T21:03:56.898Z,5.60
2022-08-14T21:07:22.951Z,5.70
2022-08-14T21:10:03.439Z,6.30
2022-08-14T21:12:34.984Z,5.70
2022-08-14T21:15:00.914Z,6.20
2022-08-14T21:17:29.754Z,5.90
2022-08-14T21:19:56.949Z,5.70
2022-08-14T21:22:23.890Z,6.50
2022-08-14T21:25:02.141Z,6.10
2022-08-14T21:27:37.110Z,6.40
2022-08-14T21:30:08.762Z,6.30
2022-08-14T21:32:50.084Z,6.60
2022-08-14T21:35:26.044Z,6.70
2022-08-14T21:37:53.995Z,6.70
2022-08-14T21:40:41.522Z,6.50
2022-08-14T21:43:14.859Z,7.00
2022-08-14T21:45:45.156Z,6.20
2022-08-14T21:48:21.010Z,6.50
2022-08-14T21:51:02.091Z,6.10
2022-08-14T21:53:58.183Z,7.10
2022-08-14T21:56:38.763Z,6.80
2022-08-14T21:59:17.832Z,6.50
2022-08-14T22:02:01.780Z,7.00
2022-08-14T22:04:40.022Z,7.60
2022-08-14T22:07:10.855Z,7.30
2022-08-14T22:09:43.000Z,7.30
2022-08-14T22:12:57.990Z,7.70
2022-08-14T22:15:07.014Z,7.80
2022-08-14T22:17:34.803Z,7.60
2022-08-14T22:20:07.300Z,8.30
2022-08-14T22:22:34.985Z,7.70
2022-08-14T22:25:09.098Z,8.00
2022-08-14T22:27:55.447Z,8.10
2022-08-14T22:30:24.347Z,8.50
2022-08-14T22:32:57.894Z,8.60
2022-08-14T22:35:26.790Z,8.70
2022-08-14T22:38:34.680Z,7.50
2022-08-14T22:41:07.080Z,8.50
2022-08-14T22:43:31.435Z,8.90
2022-08-14T22:46:02.114Z,8.40
2022-08-14T22:48:31.903Z,7.60
2022-08-14T22:50:59.566Z,8.30
2022-08-14T22:53:29.431Z,8.00
2022-08-14T22:58:30.425Z,8.70
2022-08-14T23:01:02.227Z,8.80
2022-08-14T23:03:34.768Z,8.50
2022-08-14T23:07:02.019Z,10.30
2022-08-14T23:09:01.396Z,8.40
2022-08-14T23:11:46.238Z,8.70
2022-08-14T23:14:23.864Z,8.70
2022-08-14T23:16:57.115Z,9.00
2022-08-14T23:19:25.718Z,9.20
2022-08-14T23:22:01.041Z,8.80
2022-08-14T23:24:27.994Z,8.30
2022-08-14T23:26:56.194Z,8.20
2022-08-14T23:29:23.110Z,9.00
2022-08-14T23:31:50.153Z,9.30
2022-08-14T23:34:20.920Z,9.50
2022-08-14T23:36:54.377Z,9.10
2022-08-14T23:39:30.531Z,8.20
2022-08-14T23:42:02.317Z,9.00
2022-08-14T23:44:35.205Z,8.90
2022-08-14T23:47:10.916Z,8.40
2022-08-14T23:49:56.485Z,9.70
2022-08-14T23:52:51.050Z,9.20
2022-08-14T23:55:15.628Z,9.10
2022-08-14T23:57:43.667Z,9.30
